createdAt,value
2016-06-07T00:00:43.085Z,0
2016-06-07T00:03:53.892Z,0
2016-06-07T00:07:07.072Z,0
2016-06-07T00:10:26.112Z,0
2016-06-07T00:13:29.010Z,0
2016-06-07T00:16:42.346Z,0
2016-06-07T00:19:55.342Z,0
2016-06-07T00:23:09.084Z,0
2016-06-07T00:26:27.811Z,0
2016-06-07T00:29:30.664Z,0
2016-06-07T00:32:43.999Z,0
2016-06-07T00:35:57.572Z,0
2016-06-07T00:39:11.127Z,0
2016-06-07T00:42:30.682Z,0
2016-06-07T00:45:33.409Z,0
2016-06-07T00:48:46.745Z,0
2016-06-07T00:51:59.834Z,0
2016-06-07T00:55:12.967Z,0
2016-06-07T00:58:32.225Z,0
2016-06-07T01:01:35.202Z,0
2016-06-07T01:04:48.663Z,0
2016-06-07T01:08:01.783Z,0
2016-06-07T01:11:15.166Z,0
2016-06-07T01:14:28.081Z,0
2016-06-07T01:17:40.979Z,0
2016-06-07T01:20:54.347Z,0
2016-06-07T01:24:07.498Z,0
2016-06-07T01:27:26.428Z,0
2016-06-07T01:30:29.077Z,0
2016-06-07T01:33:41.913Z,0
2016-06-07T01:36:56.002Z,0
2016-06-07T01:40:08.369Z,0
2016-06-07T01:43:27.065Z,0
2016-06-07T01:46:29.713Z,0
2016-06-07T01:49:42.740Z,0
2016-06-07T01:52:55.464Z,0
2016-06-07T01:56:08.427Z,1
2016-06-07T01:59:27.196Z,1
2016-06-07T02:02:29.851Z,2
2016-06-07T02:05:42.628Z,2
2016-06-07T02:08:55.810Z,4
2016-06-07T02:12:06.650Z,5
2016-06-07T02:15:25.690Z,7
2016-06-07T02:18:28.105Z,9
2016-06-07T02:21:41.253Z,14
2016-06-07T02:24:54.121Z,19
2016-06-07T02:28:07.334Z,28
2016-06-07T02:31:26.545Z,38
2016-06-07T02:34:29.101Z,54
2016-06-07T02:37:42.233Z,71
2016-06-07T02:40:55.508Z,95
2016-06-07T02:44:08.455Z,123
2016-06-07T02:47:27.307Z,155
2016-06-07T02:50:29.769Z,192
2016-06-07T02:53:42.902Z,236
2016-06-07T02:56:55.832Z,283
2016-06-07T03:00:07.999Z,335
2016-06-07T03:03:26.678Z,390
2016-06-07T03:06:29.155Z,447
2016-06-07T03:09:42.148Z,507
2016-06-07T03:12:55.140Z,569
2016-06-07T03:16:08.041Z,635
2016-06-07T03:19:26.800Z,698
2016-06-07T03:22:29.261Z,758
2016-06-07T03:25:42.488Z,822
2016-06-07T03:28:55.309Z,889
2016-06-07T03:32:08.585Z,953
2016-06-07T03:35:27.264Z,1011
2016-06-07T03:38:29.725Z,1078
2016-06-07T03:41:42.531Z,1142
2016-06-07T03:44:55.102Z,1207
2016-06-07T03:48:08.205Z,1264
2016-06-07T03:51:27.292Z,1307
2016-06-07T03:54:29.707Z,1391
2016-06-07T03:57:40.761Z,1451
2016-06-07T04:00:53.504Z,1501
2016-06-07T04:04:06.530Z,1564
2016-06-07T04:07:25.492Z,1638
2016-06-07T04:10:33.406Z,1703
2016-06-07T04:13:35.851Z,1768
2016-06-07T04:16:48.640Z,1834
2016-06-07T04:20:01.196Z,1919
2016-06-07T04:23:11.441Z,2217
2016-06-07T04:26:30.073Z,2473
2016-06-07T04:29:32.457Z,2664
2016-06-07T04:32:45.559Z,2840
2016-06-07T04:35:58.597Z,2944
2016-06-07T04:39:11.311Z,3042
2016-06-07T04:42:30.414Z,3046
2016-06-07T04:45:33.155Z,2977
2016-06-07T04:48:46.477Z,3145
2016-06-07T04:52:00.625Z,3430
2016-06-07T04:55:13.589Z,3700
2016-06-07T04:58:33.082Z,3892
2016-06-07T05:01:35.996Z,4138
2016-06-07T05:04:49.160Z,4408
2016-06-07T05:08:02.731Z,4660
2016-06-07T05:11:16.476Z,4833
2016-06-07T05:14:30.031Z,4895
2016-06-07T05:17:43.366Z,4866
2016-06-07T05:20:56.656Z,4974
2016-06-07T05:24:09.730Z,4905
2016-06-07T05:27:28.379Z,4985
2016-06-07T05:30:31.292Z,5031
2016-06-07T05:33:44.488Z,5000
2016-06-07T05:36:58.168Z,5161
2016-06-07T05:40:11.617Z,5366
2016-06-07T05:43:30.703Z,5699
2016-06-07T05:46:33.680Z,5773
2016-06-07T05:49:47.078Z,12296
2016-06-07T05:53:00.492Z,388
2016-06-07T05:56:13.753Z,384
2016-06-07T05:59:33.480Z,384
2016-06-07T06:02:36.629Z,384
2016-06-07T06:05:49.793Z,4878
2016-06-07T06:09:03.239Z,8780
2016-06-07T06:12:16.156Z,4864
2016-06-07T06:15:29.867Z,384
2016-06-07T06:18:43.703Z,384
2016-06-07T06:21:57.477Z,384
2016-06-07T06:25:11.097Z,384
2016-06-07T06:28:30.777Z,384
2016-06-07T06:31:34.097Z,384
2016-06-07T06:34:48.355Z,384
2016-06-07T06:38:02.629Z,13380
2016-06-07T06:41:16.686Z,384
2016-06-07T06:44:31.273Z,384
2016-06-07T06:47:45.640Z,384
2016-06-07T06:51:00.273Z,384
2016-06-07T06:54:14.659Z,384
2016-06-07T06:57:34.714Z,529
2016-06-07T07:00:38.549Z,384
2016-06-07T07:03:53.152Z,384
2016-06-07T07:07:08.004Z,384
2016-06-07T07:10:28.109Z,384
2016-06-07T07:13:32.664Z,384
2016-06-07T07:16:47.312Z,384
2016-06-07T07:20:02.133Z,384
2016-06-07T07:23:17.174Z,384
2016-06-07T07:26:32.308Z,384
2016-06-07T07:29:47.675Z,384
2016-06-07T07:33:00.715Z,384
2016-06-07T07:36:16.179Z,384
2016-06-07T07:39:31.545Z,384
2016-06-07T07:42:47.226Z,384
2016-06-07T07:46:02.859Z,384
2016-06-07T07:49:18.760Z,384
2016-06-07T07:52:34.644Z,384
2016-06-07T07:55:50.558Z,384
2016-06-07T07:59:06.331Z,384
2016-06-07T08:02:19.374Z,384
2016-06-07T08:05:35.115Z,384
2016-06-07T08:08:50.702Z,384
2016-06-07T08:12:06.195Z,384
2016-06-07T08:15:27.814Z,384
2016-06-07T08:18:32.667Z,384
2016-06-07T08:21:48.111Z,384
2016-06-07T08:25:03.495Z,384
2016-06-07T08:28:18.927Z,384
2016-06-07T08:31:34.389Z,384
2016-06-07T08:34:49.787Z,384
2016-06-07T08:38:05.108Z,384
2016-06-07T08:41:26.713Z,384
2016-06-07T08:44:31.486Z,384
2016-06-07T08:47:46.963Z,384
2016-06-07T08:51:02.174Z,384
2016-06-07T08:54:17.638Z,384
2016-06-07T08:57:33.162Z,384
2016-06-07T09:00:48.342Z,384
2016-06-07T09:04:03.569Z,384
2016-06-07T09:07:18.845Z,384
2016-06-07T09:10:34.353Z,384
2016-06-07T09:13:49.690Z,384
2016-06-07T09:17:05.229Z,384
2016-06-07T09:20:26.645Z,384
2016-06-07T09:23:31.419Z,384
2016-06-07T09:26:45.959Z,384
2016-06-07T09:30:01.200Z,384
2016-06-07T09:33:16.353Z,384
2016-06-07T09:36:31.454Z,384
2016-06-07T09:39:46.493Z,384
2016-06-07T09:43:01.643Z,384
2016-06-07T09:46:16.857Z,384
2016-06-07T09:49:32.021Z,384
2016-06-07T09:52:47.701Z,384
2016-06-07T09:56:01.881Z,384
2016-06-07T09:59:16.828Z,384
2016-06-07T10:02:31.618Z,384
2016-06-07T10:05:46.673Z,384
2016-06-07T10:09:01.885Z,15103
2016-06-07T10:12:16.563Z,8631
2016-06-07T10:15:35.638Z,8248
2016-06-07T10:18:39.302Z,5181
2016-06-07T10:21:53.763Z,8058
2016-06-07T10:25:08.099Z,7517
2016-06-07T10:28:28.468Z,7273
2016-06-07T10:31:31.881Z,7200
2016-06-07T10:34:46.034Z,7171
2016-06-07T10:37:59.931Z,6871
2016-06-07T10:41:13.612Z,6906
2016-06-07T10:44:33.042Z,6728
2016-06-07T10:47:35.722Z,6653
2016-06-07T10:50:48.905Z,6483
2016-06-07T10:54:02.537Z,6311
2016-06-07T10:57:16.416Z,6221
2016-06-07T11:00:33.321Z,6091
2016-06-07T11:03:36.080Z,5936
2016-06-07T11:06:49.633Z,5803
2016-06-07T11:10:03.271Z,5658
2016-06-07T11:13:17.032Z,5447
2016-06-07T11:16:30.697Z,5261
2016-06-07T11:19:44.612Z,5150
2016-06-07T11:22:58.327Z,5095
2016-06-07T11:26:12.085Z,5009
2016-06-07T11:29:31.233Z,4973
2016-06-07T11:32:34.211Z,4839
2016-06-07T11:35:47.877Z,4630
2016-06-07T11:38:58.463Z,4415
2016-06-07T11:42:12.190Z,4194
2016-06-07T11:45:31.792Z,4073
2016-06-07T11:48:34.597Z,4045
2016-06-07T11:51:47.780Z,4040
2016-06-07T11:55:01.256Z,4062
2016-06-07T11:58:14.702Z,4029
2016-06-07T12:01:34.225Z,3939
2016-06-07T12:04:36.999Z,3846
2016-06-07T12:07:50.651Z,3761
2016-06-07T12:11:04.299Z,3756
2016-06-07T12:14:18.026Z,3624
2016-06-07T12:17:31.534Z,3608
2016-06-07T12:20:42.667Z,3646
2016-06-07T12:23:56.178Z,3649
2016-06-07T12:27:09.717Z,3612
2016-06-07T12:30:29.116Z,3526
2016-06-07T12:33:32.030Z,3474
2016-06-07T12:36:45.788Z,3464
2016-06-07T12:39:59.127Z,3397
2016-06-07T12:43:12.713Z,3350
2016-06-07T12:46:32.331Z,3256
2016-06-07T12:49:35.105Z,3198
2016-06-07T12:52:48.738Z,3121
2016-06-07T12:56:02.342Z,3152
2016-06-07T12:59:15.678Z,3155
2016-06-07T13:02:35.452Z,3136
2016-06-07T13:05:38.227Z,3079
2016-06-07T13:08:51.690Z,3066
2016-06-07T13:12:04.620Z,3022
2016-06-07T13:15:18.987Z,2915
2016-06-07T13:18:31.620Z,2890
2016-06-07T13:21:45.175Z,2861
2016-06-07T13:24:58.655Z,2857
2016-06-07T13:28:10.179Z,2842
2016-06-07T13:31:29.905Z,2845
2016-06-07T13:34:32.616Z,2801
2016-06-07T13:37:46.047Z,2782
2016-06-07T13:40:59.713Z,2799
2016-06-07T13:44:12.971Z,2744
2016-06-07T13:47:32.760Z,2736
2016-06-07T13:50:35.582Z,2708
2016-06-07T13:53:49.184Z,2686
2016-06-07T13:57:02.881Z,2681
2016-06-07T14:00:16.436Z,2656
2016-06-07T14:03:36.100Z,2628
2016-06-07T14:06:39.030Z,2601
2016-06-07T14:09:52.804Z,2584
2016-06-07T14:13:04.362Z,2608
2016-06-07T14:16:18.277Z,2556
2016-06-07T14:19:32.206Z,2509
2016-06-07T14:22:45.761Z,2477
2016-06-07T14:25:59.303Z,2438
2016-06-07T14:29:12.577Z,2417
2016-06-07T14:32:32.053Z,2376
2016-06-07T14:35:34.968Z,2355
2016-06-07T14:38:48.647Z,2323
2016-06-07T14:42:02.174Z,2302
2016-06-07T14:45:15.901Z,2251
2016-06-07T14:48:35.753Z,2212
2016-06-07T14:51:38.589Z,2218
2016-06-07T14:54:52.363Z,2232
2016-06-07T14:58:06.186Z,2222
2016-06-07T15:01:19.960Z,2215
2016-06-07T15:04:33.765Z,2198
2016-06-07T15:07:47.367Z,2202
2016-06-07T15:11:01.097Z,2199
2016-06-07T15:14:13.433Z,2195
2016-06-07T15:17:33.002Z,2222
2016-06-07T15:20:36.042Z,2269
2016-06-07T15:23:49.894Z,2262
2016-06-07T15:27:03.623Z,2220
2016-06-07T15:30:17.334Z,2178
2016-06-07T15:33:37.186Z,2158
2016-06-07T15:36:40.133Z,2104
2016-06-07T15:39:53.922Z,2098
2016-06-07T15:43:05.822Z,2087
2016-06-07T15:46:18.127Z,2087
2016-06-07T15:49:36.418Z,2080
2016-06-07T15:52:39.285Z,2071
2016-06-07T15:55:52.745Z,2058
2016-06-07T15:59:06.475Z,2075
2016-06-07T16:02:20.203Z,2086
2016-06-07T16:05:37.820Z,2090
2016-06-07T16:08:40.797Z,2099
2016-06-07T16:11:54.585Z,2127
2016-06-07T16:15:08.440Z,2106
2016-06-07T16:18:28.402Z,2093
2016-06-07T16:21:37.488Z,2066
2016-06-07T16:24:40.323Z,2034
2016-06-07T16:27:54.034Z,2024
2016-06-07T16:31:04.623Z,2009
2016-06-07T16:34:18.084Z,1985
2016-06-07T16:37:37.843Z,1964
2016-06-07T16:40:40.851Z,1948
2016-06-07T16:43:54.453Z,1941
2016-06-07T16:47:08.308Z,1920
2016-06-07T16:50:22.081Z,1905
2016-06-07T16:53:35.683Z,1891
2016-06-07T16:56:49.207Z,1879
2016-06-07T17:00:02.874Z,1856
2016-06-07T17:03:14.632Z,1853
2016-06-07T17:06:34.468Z,1838
2016-06-07T17:09:37.194Z,1821
2016-06-07T17:12:50.859Z,1806
2016-06-07T17:16:04.510Z,1784
2016-06-07T17:19:18.066Z,1768
2016-06-07T17:22:37.793Z,1742
2016-06-07T17:25:40.535Z,1729
2016-06-07T17:28:53.777Z,1716
2016-06-07T17:32:06.944Z,1679
2016-06-07T17:35:20.640Z,1663
2016-06-07T17:38:34.023Z,1642
2016-06-07T17:41:47.624Z,1612
2016-06-07T17:45:01.258Z,1580
2016-06-07T17:48:14.799Z,1550
2016-06-07T17:51:34.401Z,1517
2016-06-07T17:54:37.207Z,1478
2016-06-07T17:57:50.637Z,1440
2016-06-07T18:01:04.115Z,1405
2016-06-07T18:04:17.593Z,1341
2016-06-07T18:07:37.054Z,1265
2016-06-07T18:10:39.797Z,1206
2016-06-07T18:13:53.148Z,1150
2016-06-07T18:17:04.063Z,1061
2016-06-07T18:20:17.151Z,977
2016-06-07T18:23:36.269Z,891
2016-06-07T18:26:38.840Z,818
2016-06-07T18:29:51.363Z,754
2016-06-07T18:33:04.574Z,694
2016-06-07T18:36:17.867Z,635
2016-06-07T18:39:37.171Z,580
2016-06-07T18:42:39.664Z,533
2016-06-07T18:45:52.922Z,485
2016-06-07T18:49:06.117Z,198
2016-06-07T18:52:19.191Z,413
2016-06-07T18:55:38.761Z,384
2016-06-07T18:58:41.285Z,356
2016-06-07T19:01:54.855Z,328
2016-06-07T19:05:08.085Z,299
2016-06-07T19:08:21.203Z,266
2016-06-07T19:11:40.461Z,234
2016-06-07T19:14:43.015Z,204
2016-06-07T19:17:56.352Z,177
2016-06-07T19:21:09.456Z,153
2016-06-07T19:24:19.839Z,132
2016-06-07T19:27:38.721Z,111
2016-06-07T19:30:47.371Z,90
2016-06-07T19:33:49.332Z,72
2016-06-07T19:37:02.278Z,55
2016-06-07T19:40:15.367Z,41
2016-06-07T19:43:28.562Z,29
2016-06-07T19:46:47.023Z,21
2016-06-07T19:49:49.469Z,15
2016-06-07T19:53:00.039Z,10
2016-06-07T19:56:13.128Z,7
2016-06-07T19:59:26.026Z,5
2016-06-07T20:02:45.153Z,3
2016-06-07T20:05:47.741Z,2
2016-06-07T20:09:01.151Z,1
2016-06-07T20:12:14.408Z,1
2016-06-07T20:15:27.842Z,0
2016-06-07T20:18:47.336Z,0
2016-06-07T20:21:49.594Z,0
2016-06-07T20:25:31.308Z,0
2016-06-07T20:28:46.129Z,0
2016-06-07T20:31:48.683Z,0
2016-06-07T20:35:01.520Z,0
2016-06-07T20:38:12.235Z,0
2016-06-07T20:41:25.196Z,0
2016-06-07T20:44:44.140Z,0
2016-06-07T20:47:46.431Z,0
2016-06-07T20:50:59.470Z,0
2016-06-07T20:54:11.917Z,0
2016-06-07T20:57:22.082Z,0
2016-06-07T21:00:33.168Z,0
2016-06-07T21:03:51.363Z,0
2016-06-07T21:06:54.590Z,0
2016-06-07T21:10:08.130Z,0
2016-06-07T21:13:21.609Z,0
2016-06-07T21:16:35.462Z,0
2016-06-07T21:19:55.438Z,0
2016-06-07T21:22:59.117Z,0
2016-06-07T21:26:13.456Z,0
2016-06-07T21:29:26.777Z,0
2016-06-07T21:32:39.660Z,0
2016-06-07T21:35:53.747Z,0
2016-06-07T21:39:07.943Z,384
2016-06-07T21:42:22.406Z,384
2016-06-07T21:45:36.820Z,384
2016-06-07T21:48:57.390Z,384
2016-06-07T21:52:01.196Z,0
2016-06-07T21:55:12.784Z,0
2016-06-07T21:58:27.042Z,0
2016-06-07T22:01:41.208Z,0
2016-06-07T22:04:55.481Z,0
2016-06-07T22:08:09.660Z,0
2016-06-07T22:11:23.749Z,0
2016-06-07T22:17:50.001Z,0
2016-06-07T22:21:04.149Z,0
2016-06-07T22:24:18.316Z,0
2016-06-07T22:27:32.653Z,0
2016-06-07T22:30:46.394Z,0
2016-06-07T22:34:06.715Z,0
2016-06-07T22:37:10.239Z,0
2016-06-07T22:40:24.702Z,0
2016-06-07T22:43:38.368Z,0
2016-06-07T22:46:58.688Z,0
2016-06-07T22:50:02.242Z,0
2016-06-07T22:53:15.020Z,0
2016-06-07T22:56:29.214Z,0
2016-06-07T22:59:43.332Z,0
2016-06-07T23:03:02.965Z,0
2016-06-07T23:06:06.488Z,0
2016-06-07T23:09:19.094Z,0
2016-06-07T23:12:33.507Z,0
2016-06-07T23:15:47.796Z,0
2016-06-07T23:19:08.196Z,0
2016-06-07T23:22:11.797Z,0
2016-06-07T23:25:26.105Z,0
2016-06-07T23:28:40.378Z,0
2016-06-07T23:31:52.214Z,0
2016-06-07T23:35:03.676Z,0
2016-06-07T23:38:17.765Z,0
2016-06-07T23:41:32.024Z,0
2016-06-07T23:44:45.032Z,0
2016-06-07T23:48:05.164Z,0
2016-06-07T23:51:08.719Z,0
2016-06-07T23:54:20.151Z,0
2016-06-07T23:57:34.331Z,0
